createdAt,value
2019-01-05T00:01:24.407Z,5.33
2019-01-05T00:04:07.492Z,4.17
2019-01-05T00:06:54.317Z,6.20
2019-01-05T00:09:40.985Z,5.57
2019-01-05T00:12:27.752Z,3.73
2019-01-05T00:15:15.434Z,4.57
2019-01-05T00:18:02.407Z,4.37
2019-01-05T00:20:52.006Z,5.00
2019-01-05T00:23:39.627Z,4.70
2019-01-05T00:26:22.023Z,5.00
2019-01-05T00:29:02.032Z,5.97
2019-01-05T00:31:58.126Z,2.63
2019-01-05T00:35:07.410Z,2.83
2019-01-05T00:38:04.807Z,3.77
2019-01-05T00:41:00.882Z,2.97
2019-01-05T00:43:47.442Z,4.23
2019-01-05T00:46:41.813Z,7.83
2019-01-05T00:49:29.253Z,5.80
2019-01-05T00:52:18.018Z,2.57
2019-01-05T00:55:07.523Z,2.97
2019-01-05T00:58:06.562Z,4.60
2019-01-05T01:01:02.471Z,3.57
2019-01-05T01:03:44.017Z,2.80
2019-01-05T01:06:30.040Z,3.83
2019-01-05T01:09:12.401Z,3.17
2019-01-05T01:11:53.918Z,3.33
2019-01-05T01:14:40.511Z,2.10
2019-01-05T01:17:21.506Z,4.63
2019-01-05T01:20:16.114Z,2.57
2019-01-05T01:23:01.810Z,2.10
2019-01-05T01:25:50.800Z,3.30
2019-01-05T01:28:44.716Z,4.80
2019-01-05T01:31:33.178Z,3.83
2019-01-05T01:34:20.099Z,2.93
2019-01-05T01:37:05.058Z,3.13
2019-01-05T01:39:55.118Z,2.10
2019-01-05T01:43:01.262Z,2.90
2019-01-05T01:45:48.793Z,2.60
2019-01-05T01:48:42.550Z,3.33
2019-01-05T01:51:33.354Z,4.30
2019-01-05T01:54:24.103Z,3.77
2019-01-05T01:57:10.471Z,2.23
2019-01-05T02:00:26.621Z,3.07
2019-01-05T02:03:14.665Z,5.53
2019-01-05T02:06:24.182Z,2.90
2019-01-05T02:09:22.907Z,2.97
2019-01-05T02:12:19.568Z,2.23
2019-01-05T02:15:12.879Z,1.63
2019-01-05T02:18:38.777Z,3.67
2019-01-05T02:21:44.895Z,3.27
2019-01-05T02:25:07.599Z,1.05
2019-01-05T02:28:48.094Z,2.43
2019-01-05T02:32:03.899Z,4.45
2019-01-05T02:35:15.455Z,2.87
2019-01-05T02:38:31.711Z,1.10
2019-01-05T02:41:33.573Z,0.80
2019-01-05T02:44:45.084Z,1.97
2019-01-05T02:48:40.537Z,0.80
2019-01-05T02:51:54.963Z,2.13
2019-01-05T02:55:13.416Z,1.73
2019-01-05T02:58:58.113Z,2.37
2019-01-05T03:02:58.244Z,0.90
2019-01-05T03:06:23.511Z,1.97
2019-01-05T03:10:09.391Z,0.80
2019-01-05T03:13:29.698Z,2.80
2019-01-05T03:16:46.098Z,1.17
2019-01-05T03:20:24.158Z,1.20
2019-01-05T03:23:52.731Z,1.93
2019-01-05T03:27:29.810Z,1.67
2019-01-05T03:31:22.823Z,1.80
2019-01-05T03:34:50.228Z,1.75
2019-01-05T03:38:26.122Z,1.73
2019-01-05T03:41:45.062Z,1.95
2019-01-05T03:45:18.570Z,1.47
2019-01-05T03:48:41.088Z,0.87
2019-01-05T03:52:21.198Z,1.33
2019-01-05T03:55:41.360Z,1.37
2019-01-05T03:59:08.868Z,0.63
2019-01-05T04:02:33.829Z,1.97
2019-01-05T04:05:50.793Z,1.10
2019-01-05T04:09:04.279Z,1.07
2019-01-05T04:12:24.105Z,1.43
2019-01-05T04:15:42.298Z,1.77
2019-01-05T04:19:12.238Z,1.13
2019-01-05T04:22:32.008Z,1.37
2019-01-05T04:25:53.355Z,3.80
2019-01-05T04:29:11.101Z,1.10
2019-01-05T04:32:16.099Z,1.37
2019-01-05T04:35:37.867Z,1.03
2019-01-05T04:39:08.762Z,1.35
2019-01-05T04:42:16.385Z,1.00
2019-01-05T04:45:38.738Z,0.77
2019-01-05T04:48:56.234Z,3.57
2019-01-05T04:52:32.982Z,1.02
2019-01-05T04:55:54.543Z,1.97
2019-01-05T04:59:10.396Z,1.42
2019-01-05T05:02:16.969Z,0.43
2019-01-05T05:05:50.694Z,0.67
2019-01-05T05:09:42.559Z,0.98
2019-01-05T05:12:56.633Z,2.07
2019-01-05T05:16:16.899Z,1.33
2019-01-05T05:19:49.478Z,1.03
2019-01-05T05:23:19.537Z,2.07
2019-01-05T05:26:58.899Z,1.53
2019-01-05T05:30:32.216Z,1.50
2019-01-05T05:34:13.734Z,1.30
2019-01-05T05:37:49.877Z,6.10
2019-01-05T05:41:15.089Z,1.63
2019-01-05T05:44:55.786Z,3.30
2019-01-05T05:48:04.213Z,2.77
2019-01-05T05:51:28.249Z,2.23
2019-01-05T05:54:42.754Z,6.80
2019-01-05T05:58:05.888Z,5.65
2019-01-05T06:01:32.206Z,4.80
2019-01-05T06:04:46.702Z,3.90
2019-01-05T06:08:00.835Z,2.63
2019-01-05T06:11:34.074Z,1.80
2019-01-05T06:14:55.407Z,3.17
2019-01-05T06:18:20.994Z,2.77
2019-01-05T06:22:15.697Z,7.30
2019-01-05T06:25:50.529Z,3.73
2019-01-05T06:29:12.807Z,3.60
2019-01-05T06:32:35.015Z,3.60
2019-01-05T06:35:59.272Z,2.23
2019-01-05T06:39:24.297Z,5.47
2019-01-05T06:42:39.951Z,6.47
2019-01-05T06:45:58.578Z,5.30
2019-01-05T06:49:17.450Z,6.60
2019-01-05T06:52:30.542Z,10.17
2019-01-05T06:56:02.018Z,6.43
2019-01-05T06:59:20.270Z,5.90
2019-01-05T07:02:50.969Z,5.17
2019-01-05T07:06:34.462Z,4.85
2019-01-05T07:09:57.906Z,8.77
2019-01-05T07:13:09.677Z,12.73
2019-01-05T07:16:32.341Z,12.97
2019-01-05T07:19:57.991Z,11.47
2019-01-05T07:23:16.539Z,17.23
2019-01-05T07:26:54.951Z,7.87
2019-01-05T07:30:17.593Z,17.30
2019-01-05T07:33:44.913Z,7.80
2019-01-05T07:37:38.850Z,13.90
2019-01-05T07:40:45.842Z,10.80
2019-01-05T07:44:22.708Z,7.63
2019-01-05T07:47:53.677Z,10.43
2019-01-05T07:51:19.646Z,9.63
2019-01-05T07:54:57.323Z,18.33
2019-01-05T07:58:30.752Z,12.40
2019-01-05T08:01:40.574Z,11.17
2019-01-05T08:05:09.607Z,6.03
2019-01-05T08:08:42.429Z,13.60
2019-01-05T08:12:08.929Z,6.13
2019-01-05T08:15:54.513Z,16.12
2019-01-05T08:19:24.606Z,28.00
2019-01-05T08:22:42.841Z,7.70
2019-01-05T08:26:23.456Z,21.13
2019-01-05T08:29:36.803Z,13.87
2019-01-05T08:32:59.353Z,15.60
2019-01-05T08:36:37.317Z,9.87
2019-01-05T08:39:57.948Z,16.00
2019-01-05T08:43:25.977Z,18.47
2019-01-05T08:46:48.561Z,16.73
2019-01-05T08:50:22.925Z,9.87
2019-01-05T08:53:33.688Z,13.47
2019-01-05T08:57:20.537Z,8.43
2019-01-05T09:00:41.557Z,13.67
2019-01-05T09:04:32.085Z,12.60
2019-01-05T09:08:14.681Z,5.87
2019-01-05T09:11:36.194Z,14.33
2019-01-05T09:15:06.933Z,16.17
2019-01-05T09:18:18.798Z,11.80
2019-01-05T09:21:52.835Z,25.03
2019-01-05T09:25:16.037Z,10.30
2019-01-05T09:28:57.302Z,13.07
2019-01-05T09:32:20.870Z,17.17
2019-01-05T09:35:39.383Z,12.03
2019-01-05T09:39:01.404Z,12.97
2019-01-05T09:42:44.018Z,6.33
2019-01-05T09:46:04.037Z,7.70
2019-01-05T09:49:29.026Z,6.70
2019-01-05T09:52:49.825Z,11.97
2019-01-05T09:56:31.563Z,12.63
2019-01-05T09:59:38.742Z,8.30
2019-01-05T10:03:04.734Z,12.87
2019-01-05T10:06:46.442Z,13.93
2019-01-05T10:10:15.443Z,12.40
2019-01-05T10:13:41.869Z,7.47
2019-01-05T10:17:06.285Z,6.17
2019-01-05T10:20:40.878Z,12.93
2019-01-05T10:24:02.273Z,10.93
2019-01-05T10:27:38.374Z,8.87
2019-01-05T10:31:31.730Z,6.63
2019-01-05T10:34:38.326Z,9.97
2019-01-05T10:38:00.973Z,7.77
2019-01-05T10:41:26.810Z,15.30
2019-01-05T10:44:41.650Z,8.77
2019-01-05T10:48:13.762Z,9.53
2019-01-05T10:51:32.325Z,10.20
2019-01-05T10:55:11.354Z,6.85
2019-01-05T10:58:31.501Z,12.70
2019-01-05T11:01:57.753Z,6.47
2019-01-05T11:05:32.860Z,8.77
2019-01-05T11:08:57.151Z,9.30
2019-01-05T11:12:31.310Z,9.50
2019-01-05T11:15:53.966Z,10.98
2019-01-05T11:19:15.345Z,14.60
2019-01-05T11:22:33.531Z,7.70
2019-01-05T11:25:51.662Z,12.50
2019-01-05T11:29:14.132Z,9.27
2019-01-05T11:32:53.246Z,6.97
2019-01-05T11:36:14.895Z,8.27
2019-01-05T11:39:42.686Z,11.17
2019-01-05T11:43:08.692Z,7.05
2019-01-05T11:46:25.281Z,12.40
2019-01-05T11:49:56.880Z,4.47
2019-01-05T11:52:59.805Z,6.10
2019-01-05T11:56:39.366Z,11.33
2019-01-05T11:59:40.802Z,7.30
2019-01-05T12:02:45.338Z,10.68
2019-01-05T12:06:17.591Z,5.60
2019-01-05T12:09:37.086Z,3.87
2019-01-05T12:12:44.087Z,8.30
2019-01-05T12:15:59.733Z,8.03
2019-01-05T12:19:30.015Z,8.93
2019-01-05T12:23:02.872Z,5.05
2019-01-05T12:26:34.493Z,6.20
2019-01-05T12:30:05.143Z,5.28
2019-01-05T12:33:31.715Z,9.33
2019-01-05T12:37:03.887Z,7.30
2019-01-05T12:40:30.756Z,12.87
2019-01-05T12:43:55.561Z,12.20
2019-01-05T12:47:12.898Z,5.77
2019-01-05T12:50:48.729Z,9.00
2019-01-05T12:54:39.214Z,6.83
2019-01-05T12:58:14.490Z,5.20
2019-01-05T13:01:43.274Z,8.70
2019-01-05T13:05:06.347Z,5.53
2019-01-05T13:08:42.080Z,11.57
2019-01-05T13:12:10.658Z,4.73
2019-01-05T13:15:48.311Z,3.90
2019-01-05T13:19:11.133Z,3.73
2019-01-05T13:22:53.823Z,6.30
2019-01-05T13:26:31.324Z,8.87
2019-01-05T13:29:54.284Z,4.20
2019-01-05T13:33:25.843Z,6.50
2019-01-05T13:36:50.401Z,5.03
2019-01-05T13:40:29.961Z,5.00
2019-01-05T13:44:05.031Z,9.70
2019-01-05T13:47:42.002Z,8.37
2019-01-05T13:54:21.333Z,9.60
2019-01-05T13:57:10.919Z,13.10
2019-01-05T14:00:06.346Z,7.20
2019-01-05T14:03:04.152Z,2.90
2019-01-05T14:05:50.916Z,1.40
2019-01-05T14:08:47.854Z,4.83
2019-01-05T14:11:49.885Z,7.87
2019-01-05T14:14:35.848Z,8.60
2019-01-05T14:17:21.242Z,5.07
2019-01-05T14:20:24.269Z,8.73
2019-01-05T14:23:09.655Z,9.57
2019-01-05T14:26:03.396Z,12.10
2019-01-05T14:28:52.082Z,7.90
2019-01-05T14:31:39.986Z,7.00
2019-01-05T14:34:27.071Z,3.97
2019-01-05T14:37:20.894Z,3.03
2019-01-05T14:40:07.191Z,4.77
2019-01-05T14:42:53.817Z,3.53
2019-01-05T14:45:39.646Z,5.17
2019-01-05T14:48:38.718Z,2.02
2019-01-05T14:51:22.722Z,8.10
2019-01-05T14:54:10.830Z,3.27
2019-01-05T14:56:57.391Z,3.73
2019-01-05T14:59:45.399Z,9.53
2019-01-05T15:02:27.428Z,5.27
2019-01-05T15:05:13.877Z,4.57
2019-01-05T15:08:01.535Z,4.77
2019-01-05T15:11:03.114Z,3.80
2019-01-05T15:13:58.611Z,11.17
2019-01-05T15:16:59.062Z,8.03
2019-01-05T15:19:40.847Z,3.80
2019-01-05T15:22:39.451Z,9.20
2019-01-05T15:25:29.106Z,8.57
2019-01-05T15:28:16.030Z,5.70
2019-01-05T15:31:13.297Z,4.30
2019-01-05T15:34:07.564Z,3.97
2019-01-05T15:36:50.231Z,4.97
2019-01-05T15:39:51.087Z,2.27
2019-01-05T15:42:53.899Z,7.07
2019-01-05T15:45:40.223Z,3.40
2019-01-05T15:48:28.368Z,5.20
2019-01-05T15:51:07.428Z,7.10
2019-01-05T15:54:04.294Z,5.43
2019-01-05T15:56:51.638Z,4.07
2019-01-05T15:59:38.240Z,6.53
2019-01-05T16:02:27.513Z,4.92
2019-01-05T16:05:22.108Z,3.97
2019-01-05T16:08:04.918Z,3.43
2019-01-05T16:10:55.707Z,7.10
2019-01-05T16:13:42.355Z,6.10
2019-01-05T16:16:33.982Z,7.53
2019-01-05T16:19:22.735Z,4.37
2019-01-05T16:22:26.079Z,2.57
2019-01-05T16:25:25.499Z,3.03
2019-01-05T16:28:20.735Z,8.50
2019-01-05T16:31:14.046Z,2.40
2019-01-05T16:34:04.651Z,6.30
2019-01-05T16:36:52.375Z,25.70
2019-01-05T16:39:47.921Z,4.67
2019-01-05T16:42:35.112Z,7.67
2019-01-05T16:45:22.241Z,3.90
2019-01-05T16:48:07.599Z,2.93
2019-01-05T16:50:56.110Z,3.50
2019-01-05T16:53:43.117Z,3.63
2019-01-05T16:56:33.108Z,5.27
2019-01-05T16:59:19.381Z,3.03
2019-01-05T17:02:07.665Z,4.50
2019-01-05T17:04:54.233Z,3.27
2019-01-05T17:07:52.190Z,2.17
2019-01-05T17:10:37.065Z,2.80
2019-01-05T17:13:23.750Z,4.10
2019-01-05T17:16:10.690Z,10.60
2019-01-05T17:19:01.869Z,7.47
2019-01-05T17:21:48.680Z,12.93
2019-01-05T17:24:47.906Z,8.43
2019-01-05T17:27:42.211Z,6.47
2019-01-05T17:30:27.953Z,6.17
2019-01-05T17:33:14.686Z,5.80
2019-01-05T17:35:58.159Z,3.20
2019-01-05T17:38:45.011Z,4.10
2019-01-05T17:41:31.506Z,2.63
2019-01-05T17:44:25.037Z,4.93
2019-01-05T17:47:13.632Z,6.00
2019-01-05T17:50:00.215Z,3.00
2019-01-05T17:52:57.507Z,14.53
2019-01-05T17:55:36.929Z,1.33
2019-01-05T17:58:34.701Z,4.67
2019-01-05T18:01:21.214Z,4.90
2019-01-05T18:04:07.844Z,4.93
2019-01-05T18:06:55.818Z,3.70
2019-01-05T18:09:50.490Z,9.83
2019-01-05T18:12:37.422Z,2.50
2019-01-05T18:15:23.832Z,1.67
2019-01-05T18:18:10.619Z,2.00
2019-01-05T18:20:57.271Z,0.20
2019-01-05T18:23:43.947Z,4.27
2019-01-05T18:26:31.729Z,2.03
2019-01-05T18:29:18.471Z,2.90
2019-01-05T18:32:04.866Z,1.03
2019-01-05T18:34:51.247Z,1.50
2019-01-05T18:37:37.795Z,1.70
2019-01-05T18:40:35.440Z,2.87
2019-01-05T18:43:24.606Z,1.37
2019-01-05T18:46:10.801Z,4.30
2019-01-05T18:48:57.297Z,1.20
2019-01-05T18:51:54.542Z,4.37
2019-01-05T18:54:42.443Z,1.70
2019-01-05T18:57:31.611Z,5.67
2019-01-05T19:00:37.753Z,2.60
2019-01-05T19:03:19.019Z,6.63
2019-01-05T19:06:03.272Z,1.50
2019-01-05T19:09:04.294Z,2.00
2019-01-05T19:11:55.086Z,2.70
2019-01-05T19:14:49.969Z,2.57
2019-01-05T19:17:34.353Z,0.40
2019-01-05T19:20:38.448Z,3.20
2019-01-05T19:23:22.549Z,0.50
2019-01-05T19:26:04.076Z,0.80
2019-01-05T19:28:58.535Z,3.80
2019-01-05T19:31:45.024Z,2.97
2019-01-05T19:34:35.983Z,0.60
2019-01-05T19:37:22.470Z,3.20
2019-01-05T19:40:09.050Z,3.17
2019-01-05T19:42:55.530Z,3.40
2019-01-05T19:45:43.119Z,1.33
2019-01-05T19:48:24.068Z,1.43
2019-01-05T19:51:27.088Z,2.20
2019-01-05T19:54:21.345Z,2.83
2019-01-05T19:57:07.894Z,3.23
2019-01-05T19:59:53.069Z,5.60
2019-01-05T20:02:53.040Z,2.87
2019-01-05T20:05:39.984Z,3.47
2019-01-05T20:08:26.762Z,2.43
2019-01-05T20:11:14.190Z,1.43
2019-01-05T20:14:00.668Z,1.50
2019-01-05T20:16:54.618Z,4.10
2019-01-05T20:19:49.203Z,5.27
2019-01-05T20:22:29.526Z,2.20
2019-01-05T20:25:13.262Z,2.47
2019-01-05T20:28:12.990Z,3.17
2019-01-05T20:30:59.706Z,4.90
2019-01-05T20:33:50.326Z,2.97
2019-01-05T20:36:34.740Z,1.67
2019-01-05T20:39:21.443Z,5.53
2019-01-05T20:42:12.029Z,4.50
2019-01-05T20:44:57.333Z,5.33
2019-01-05T20:47:55.357Z,2.07
2019-01-05T20:50:41.227Z,1.60
2019-01-05T20:53:27.986Z,8.90
2019-01-05T20:56:14.598Z,4.23
2019-01-05T20:59:11.918Z,2.60
2019-01-05T21:01:57.682Z,1.70
2019-01-05T21:04:47.661Z,1.87
2019-01-05T21:07:48.091Z,3.23
2019-01-05T21:10:37.213Z,4.83
2019-01-05T21:13:26.969Z,5.85
2019-01-05T21:16:13.710Z,2.97
2019-01-05T21:19:00.249Z,3.57
2019-01-05T21:21:37.995Z,2.53
2019-01-05T21:24:26.234Z,2.90
2019-01-05T21:27:12.730Z,3.80
2019-01-05T21:29:57.905Z,2.30
2019-01-05T21:32:59.527Z,1.57
2019-01-05T21:35:39.941Z,2.10
2019-01-05T21:38:25.182Z,1.50
2019-01-05T21:41:23.353Z,1.77
2019-01-05T21:44:09.762Z,5.03
2019-01-05T21:46:56.463Z,1.47
2019-01-05T21:50:02.656Z,0.80
2019-01-05T21:52:48.717Z,2.30
2019-01-05T21:55:30.730Z,1.10
2019-01-05T21:58:18.963Z,7.60
2019-01-05T22:01:07.687Z,1.97
2019-01-05T22:03:50.241Z,3.63
2019-01-05T22:06:36.842Z,3.90
2019-01-05T22:09:32.113Z,3.80
2019-01-05T22:12:21.021Z,1.40
2019-01-05T22:15:16.450Z,1.77
2019-01-05T22:18:07.587Z,5.50
2019-01-05T22:20:45.118Z,0.87
2019-01-05T22:23:33.572Z,4.10
2019-01-05T22:26:30.470Z,5.13
2019-01-05T22:29:21.522Z,6.37
2019-01-05T22:32:15.648Z,1.77
2019-01-05T22:35:00.250Z,3.07
2019-01-05T22:37:43.341Z,2.57
2019-01-05T22:40:29.775Z,4.37
2019-01-05T22:43:31.686Z,5.37
2019-01-05T22:46:31.689Z,1.73
2019-01-05T22:49:23.387Z,5.07
2019-01-05T22:52:06.970Z,6.60
2019-01-05T22:54:56.419Z,3.50
2019-01-05T22:57:46.958Z,6.33
2019-01-05T23:00:33.266Z,3.77
2019-01-05T23:03:19.607Z,5.80
2019-01-05T23:06:06.507Z,2.43
2019-01-05T23:09:12.575Z,5.33
2019-01-05T23:11:58.780Z,3.10
2019-01-05T23:14:45.468Z,6.07
2019-01-05T23:17:32.235Z,2.03
2019-01-05T23:20:19.438Z,1.70
2019-01-05T23:23:01.809Z,7.27
2019-01-05T23:25:52.817Z,3.17
2019-01-05T23:28:34.910Z,4.43
2019-01-05T23:31:33.778Z,4.50
2019-01-05T23:34:20.367Z,5.73
2019-01-05T23:37:06.885Z,2.80
2019-01-05T23:39:51.583Z,3.20
2019-01-05T23:42:48.830Z,3.97
2019-01-05T23:45:35.128Z,1.32
2019-01-05T23:48:26.016Z,2.10
2019-01-05T23:51:12.645Z,3.20
2019-01-05T23:54:03.805Z,4.77
2019-01-05T23:56:51.198Z,4.83
2019-01-05T23:59:37.153Z,4.57
